createdAt,value
2023-04-22T00:00:18.298Z,208.87
2023-04-22T00:01:18.284Z,204.97
2023-04-22T00:02:18.175Z,203.82
2023-04-22T00:03:18.297Z,204.22
2023-04-22T00:04:19.153Z,204.38
2023-04-22T00:05:20.719Z,205.16
2023-04-22T00:06:18.202Z,204.80
2023-04-22T00:07:18.044Z,206.37
2023-04-22T00:08:18.848Z,207.39
2023-04-22T00:09:18.213Z,203.23
2023-04-22T00:10:18.174Z,197.22
2023-04-22T00:11:18.039Z,194.22
2023-04-22T00:12:18.009Z,188.55
2023-04-22T00:13:18.207Z,189.41
2023-04-22T00:14:18.172Z,187.16
2023-04-22T00:15:18.078Z,182.56
2023-04-22T00:16:18.042Z,184.89
2023-04-22T00:17:18.093Z,182.95
2023-04-22T00:18:18.242Z,183.19
2023-04-22T00:19:18.042Z,192.80
2023-04-22T00:20:18.059Z,184.59
2023-04-22T00:21:18.146Z,182.72
2023-04-22T00:22:17.960Z,185.25
2023-04-22T00:23:18.076Z,187.05
2023-04-22T00:24:18.023Z,182.42
2023-04-22T00:25:17.955Z,177.02
2023-04-22T00:26:17.958Z,175.73
2023-04-22T00:27:18.052Z,189.08
2023-04-22T00:28:17.971Z,205.82
2023-04-22T00:29:17.921Z,206.92
2023-04-22T00:30:17.991Z,196.29
2023-04-22T00:31:18.062Z,191.81
2023-04-22T00:32:17.909Z,189.90
2023-04-22T00:33:18.090Z,186.84
2023-04-22T00:34:18.161Z,184.80
2023-04-22T00:35:18.326Z,184.91
2023-04-22T00:36:17.864Z,188.93
2023-04-22T00:37:18.045Z,195.98
2023-04-22T00:38:18.074Z,199.04
2023-04-22T00:39:18.179Z,196.61
2023-04-22T00:40:18.166Z,190.89
2023-04-22T00:41:18.116Z,182.16
2023-04-22T00:42:18.015Z,182.87
2023-04-22T00:43:18.052Z,177.82
2023-04-22T00:44:18.192Z,177.61
2023-04-22T00:45:18.278Z,175.56
2023-04-22T00:46:18.249Z,172.89
2023-04-22T00:47:18.154Z,179.24
2023-04-22T00:48:18.171Z,184.14
2023-04-22T00:49:18.274Z,178.73
2023-04-22T00:50:18.232Z,176.55
2023-04-22T00:51:18.292Z,178.18
2023-04-22T00:52:18.237Z,182.94
2023-04-22T00:53:18.258Z,190.56
2023-04-22T00:54:18.302Z,197.52
2023-04-22T00:55:18.292Z,199.85
2023-04-22T00:56:18.327Z,190.21
2023-04-22T00:57:18.420Z,180.19
2023-04-22T00:58:18.381Z,181.39
2023-04-22T00:59:18.670Z,187.07
2023-04-22T01:00:18.509Z,190.88
2023-04-22T01:01:19.234Z,195.68
2023-04-22T01:02:18.734Z,199.79
2023-04-22T01:03:18.736Z,198.57
2023-04-22T01:04:19.417Z,203.67
2023-04-22T01:05:18.651Z,209.19
2023-04-22T01:06:18.518Z,203.42
2023-04-22T01:07:18.564Z,214.94
2023-04-22T01:08:18.641Z,233.56
2023-04-22T01:09:18.667Z,221.11
2023-04-22T01:10:18.635Z,211.05
2023-04-22T01:11:18.700Z,236.45
2023-04-22T01:12:18.664Z,247.42
2023-04-22T01:13:18.787Z,256.47
2023-04-22T01:14:18.818Z,269.99
2023-04-22T01:15:18.767Z,264.15
2023-04-22T01:16:18.768Z,264.22
2023-04-22T01:17:18.880Z,264.01
2023-04-22T01:18:18.822Z,265.83
2023-04-22T01:19:18.717Z,253.88
2023-04-22T01:20:18.680Z,264.15
2023-04-22T01:21:18.786Z,269.30
2023-04-22T01:22:18.734Z,273.34
2023-04-22T01:23:18.634Z,274.73
2023-04-22T01:24:18.645Z,257.31
2023-04-22T01:25:18.653Z,240.79
2023-04-22T01:26:18.789Z,237.20
2023-04-22T01:27:18.734Z,236.95
2023-04-22T01:28:18.603Z,240.37
2023-04-22T01:29:18.603Z,250.54
2023-04-22T01:30:18.671Z,256.93
2023-04-22T01:31:18.592Z,264.71
2023-04-22T01:32:19.014Z,273.12
2023-04-22T01:33:18.721Z,277.99
2023-04-22T01:34:18.841Z,278.85
2023-04-22T01:35:18.939Z,280.28
2023-04-22T01:36:18.842Z,278.83
2023-04-22T01:37:18.877Z,272.49
2023-04-22T01:38:18.948Z,268.14
2023-04-22T01:39:19.079Z,264.05
2023-04-22T01:40:19.188Z,257.62
2023-04-22T01:41:19.288Z,253.18
2023-04-22T01:42:19.099Z,248.28
2023-04-22T01:43:19.187Z,243.55
2023-04-22T01:44:19.348Z,244.40
2023-04-22T01:45:19.325Z,247.90
2023-04-22T01:46:19.337Z,248.04
2023-04-22T01:47:19.302Z,249.05
2023-04-22T01:48:19.386Z,250.08
2023-04-22T01:49:19.212Z,251.96
2023-04-22T01:50:19.267Z,251.52
2023-04-22T01:51:19.338Z,248.51
2023-04-22T01:52:19.314Z,236.68
2023-04-22T01:53:19.151Z,230.59
2023-04-22T01:54:19.308Z,227.12
2023-04-22T01:55:19.125Z,226.96
2023-04-22T01:56:19.293Z,227.03
2023-04-22T01:57:19.190Z,227.64
2023-04-22T01:58:19.296Z,227.51
2023-04-22T01:59:19.310Z,227.11
2023-04-22T02:00:19.410Z,226.45
2023-04-22T02:01:19.546Z,226.18
2023-04-22T02:02:19.575Z,225.16
2023-04-22T02:03:19.520Z,225.52
2023-04-22T02:04:19.505Z,227.39
2023-04-22T02:05:19.448Z,229.02
2023-04-22T02:06:19.447Z,227.57
2023-04-22T02:07:19.506Z,224.81
2023-04-22T02:08:19.502Z,225.30
2023-04-22T02:09:19.565Z,227.09
2023-04-22T02:10:19.814Z,227.14
2023-04-22T02:11:19.609Z,228.62
2023-04-22T02:12:19.543Z,230.46
2023-04-22T02:13:19.763Z,233.37
2023-04-22T02:14:19.727Z,234.19
2023-04-22T02:15:19.901Z,236.64
2023-04-22T02:16:19.801Z,238.33
2023-04-22T02:17:19.599Z,237.66
2023-04-22T02:18:19.584Z,236.17
2023-04-22T02:19:19.666Z,232.89
2023-04-22T02:20:19.625Z,231.89
2023-04-22T02:21:19.573Z,232.35
2023-04-22T02:22:19.633Z,232.77
2023-04-22T02:23:19.534Z,231.79
2023-04-22T02:24:19.602Z,232.92
2023-04-22T02:25:19.698Z,231.57
2023-04-22T02:26:19.627Z,230.77
2023-04-22T02:27:19.509Z,229.05
2023-04-22T02:28:19.520Z,228.93
2023-04-22T02:29:19.500Z,223.30
2023-04-22T02:30:19.594Z,222.73
2023-04-22T02:31:19.562Z,223.81
2023-04-22T02:32:19.656Z,225.53
2023-04-22T02:33:19.448Z,227.05
2023-04-22T02:34:19.499Z,226.27
2023-04-22T02:35:19.523Z,223.73
2023-04-22T02:36:19.522Z,221.69
2023-04-22T02:37:19.558Z,219.91
2023-04-22T02:38:19.528Z,214.49
2023-04-22T02:39:19.497Z,216.18
2023-04-22T02:40:19.585Z,215.88
2023-04-22T02:41:19.567Z,214.51
2023-04-22T02:42:19.609Z,213.67
2023-04-22T02:43:19.529Z,217.41
2023-04-22T02:44:19.582Z,221.66
2023-04-22T02:45:19.618Z,223.41
2023-04-22T02:46:19.652Z,225.82
2023-04-22T02:47:19.668Z,228.12
2023-04-22T02:48:19.640Z,226.07
2023-04-22T02:49:19.686Z,227.65
2023-04-22T02:50:19.862Z,229.02
2023-04-22T02:51:19.781Z,229.84
2023-04-22T02:52:19.814Z,228.20
2023-04-22T02:53:19.815Z,227.98
2023-04-22T02:54:19.798Z,227.80
2023-04-22T02:55:19.906Z,228.38
2023-04-22T02:56:19.885Z,227.10
2023-04-22T02:57:19.930Z,226.67
2023-04-22T02:58:19.925Z,227.25
2023-04-22T02:59:19.981Z,226.71
2023-04-22T03:00:20.017Z,227.82
2023-04-22T03:01:20.147Z,224.90
2023-04-22T03:02:20.137Z,218.96
2023-04-22T03:03:20.199Z,217.67
2023-04-22T03:04:20.159Z,218.82
2023-04-22T03:05:20.216Z,218.89
2023-04-22T03:06:20.178Z,220.42
2023-04-22T03:07:20.219Z,222.01
2023-04-22T03:08:20.248Z,226.99
2023-04-22T03:09:20.283Z,230.94
2023-04-22T03:10:20.299Z,233.01
2023-04-22T03:11:20.371Z,233.84
2023-04-22T03:12:20.369Z,236.20
2023-04-22T03:13:20.361Z,235.38
2023-04-22T03:14:20.395Z,233.09
2023-04-22T03:15:21.704Z,231.05
2023-04-22T03:16:20.598Z,228.07
2023-04-22T03:17:20.486Z,229.56
2023-04-22T03:18:20.525Z,229.58
2023-04-22T03:19:20.605Z,232.33
2023-04-22T03:20:20.650Z,234.20
2023-04-22T03:21:20.579Z,236.50
2023-04-22T03:22:20.607Z,234.40
2023-04-22T03:23:20.652Z,229.78
2023-04-22T03:24:20.670Z,228.91
2023-04-22T03:25:20.697Z,224.19
2023-04-22T03:26:20.657Z,221.14
2023-04-22T03:27:20.692Z,218.51
2023-04-22T03:28:20.707Z,216.71
2023-04-22T03:29:20.817Z,215.64
2023-04-22T03:30:20.875Z,211.60
2023-04-22T03:31:21.322Z,209.81
2023-04-22T03:32:20.915Z,211.63
2023-04-22T03:33:20.875Z,212.95
2023-04-22T03:34:20.820Z,212.49
2023-04-22T03:35:20.829Z,211.33
2023-04-22T03:36:20.847Z,207.37
2023-04-22T03:37:20.896Z,205.08
2023-04-22T03:38:20.881Z,202.40
2023-04-22T03:39:20.898Z,198.53
2023-04-22T03:40:20.927Z,200.53
2023-04-22T03:41:20.895Z,204.78
2023-04-22T03:42:20.902Z,206.24
2023-04-22T03:43:20.927Z,203.00
2023-04-22T03:44:20.966Z,203.79
2023-04-22T03:45:21.325Z,204.38
2023-04-22T03:46:21.053Z,205.38
2023-04-22T03:47:21.101Z,209.84
2023-04-22T03:48:21.110Z,212.00
2023-04-22T03:49:21.215Z,214.59
2023-04-22T03:50:21.166Z,216.30
2023-04-22T03:51:21.292Z,215.96
2023-04-22T03:52:21.249Z,215.34
2023-04-22T03:53:21.338Z,215.14
2023-04-22T03:54:21.383Z,212.59
2023-04-22T03:55:21.480Z,208.64
2023-04-22T03:56:21.539Z,207.72
2023-04-22T03:57:21.538Z,208.90
2023-04-22T03:58:21.555Z,208.08
2023-04-22T03:59:21.604Z,205.17
2023-04-22T04:00:21.749Z,201.30
2023-04-22T04:01:21.740Z,201.49
2023-04-22T04:02:21.767Z,205.66
2023-04-22T04:03:21.870Z,209.09
2023-04-22T04:04:21.801Z,209.14
2023-04-22T04:05:21.873Z,210.04
2023-04-22T04:06:21.779Z,214.15
2023-04-22T04:07:22.752Z,219.20
2023-04-22T04:08:21.896Z,224.34
2023-04-22T04:09:21.875Z,225.53
2023-04-22T04:10:21.948Z,229.63
2023-04-22T04:11:21.959Z,229.64
2023-04-22T04:12:22.014Z,233.05
2023-04-22T04:13:21.987Z,235.50
2023-04-22T04:14:22.059Z,235.19
2023-04-22T04:15:22.077Z,234.68
2023-04-22T04:16:22.276Z,236.31
2023-04-22T04:17:22.214Z,240.39
2023-04-22T04:18:22.228Z,246.26
2023-04-22T04:19:22.197Z,247.00
2023-04-22T04:20:22.284Z,244.54
2023-04-22T04:21:22.318Z,247.31
2023-04-22T04:22:22.276Z,248.41
2023-04-22T04:23:22.309Z,248.96
2023-04-22T04:24:22.336Z,248.88
2023-04-22T04:25:22.502Z,245.25
2023-04-22T04:26:22.499Z,243.58
2023-04-22T04:27:22.459Z,245.43
2023-04-22T04:28:22.512Z,247.75
2023-04-22T04:29:22.596Z,247.57
2023-04-22T04:30:22.566Z,246.50
2023-04-22T04:31:22.603Z,248.11
2023-04-22T04:32:22.722Z,249.48
2023-04-22T04:33:22.563Z,249.86
2023-04-22T04:34:22.608Z,249.18
2023-04-22T04:35:22.606Z,248.24
2023-04-22T04:36:22.638Z,247.49
2023-04-22T04:37:22.712Z,245.86
2023-04-22T04:38:22.610Z,245.14
2023-04-22T04:39:22.641Z,244.29
2023-04-22T04:40:22.675Z,243.63
2023-04-22T04:41:22.799Z,244.39
2023-04-22T04:42:22.783Z,245.47
2023-04-22T04:43:22.715Z,245.81
2023-04-22T04:44:22.788Z,245.64
2023-04-22T04:45:22.794Z,244.24
2023-04-22T04:46:22.884Z,243.25
2023-04-22T04:47:22.867Z,243.69
2023-04-22T04:48:22.887Z,243.33
2023-04-22T04:49:22.864Z,243.19
2023-04-22T04:50:22.937Z,244.19
2023-04-22T04:51:23.038Z,243.75
2023-04-22T04:52:22.960Z,242.53
2023-04-22T04:53:23.005Z,240.54
2023-04-22T04:54:23.009Z,240.49
2023-04-22T04:55:22.971Z,241.13
2023-04-22T04:56:23.207Z,241.83
2023-04-22T04:57:23.056Z,239.26
2023-04-22T04:58:23.047Z,240.71
2023-04-22T04:59:23.148Z,240.03
2023-04-22T05:00:23.112Z,241.54
2023-04-22T05:01:23.254Z,253.19
2023-04-22T05:02:23.666Z,250.23
2023-04-22T05:03:23.339Z,246.05
2023-04-22T05:04:23.483Z,240.73
2023-04-22T05:05:23.272Z,238.53
2023-04-22T05:06:23.314Z,242.86
2023-04-22T05:07:23.242Z,245.67
2023-04-22T05:08:23.266Z,245.07
2023-04-22T05:09:23.340Z,248.25
2023-04-22T05:10:23.336Z,245.64
2023-04-22T05:11:23.452Z,242.79
2023-04-22T05:12:23.435Z,244.86
2023-04-22T05:13:23.478Z,247.48
2023-04-22T05:14:23.552Z,247.10
2023-04-22T05:15:23.588Z,248.79
2023-04-22T05:16:23.672Z,235.58
2023-04-22T05:17:23.698Z,211.06
2023-04-22T05:18:23.672Z,202.42
2023-04-22T05:19:23.696Z,210.63
2023-04-22T05:20:23.697Z,212.94
2023-04-22T05:21:23.776Z,215.16
2023-04-22T05:22:23.800Z,218.18
2023-04-22T05:23:23.874Z,220.30
2023-04-22T05:24:23.926Z,205.39
2023-04-22T05:25:23.941Z,208.28
2023-04-22T05:26:24.082Z,207.64
2023-04-22T05:27:24.041Z,205.82
2023-04-22T05:28:24.115Z,209.02
2023-04-22T05:29:24.153Z,212.08
2023-04-22T05:30:24.183Z,212.68
2023-04-22T05:31:24.215Z,215.43
2023-04-22T05:32:24.505Z,214.55
2023-04-22T05:33:24.266Z,213.05
2023-04-22T05:34:24.337Z,209.23
2023-04-22T05:35:24.388Z,206.66
2023-04-22T05:36:24.443Z,207.60
2023-04-22T05:37:24.473Z,213.80
2023-04-22T05:38:24.518Z,214.26
2023-04-22T05:39:24.514Z,207.91
2023-04-22T05:40:24.650Z,206.71
2023-04-22T05:41:24.587Z,203.20
2023-04-22T05:42:24.624Z,199.05
2023-04-22T05:43:24.589Z,195.97
2023-04-22T05:44:24.623Z,186.01
2023-04-22T05:45:24.627Z,182.75
2023-04-22T05:46:24.731Z,184.95
2023-04-22T05:47:24.715Z,184.38
2023-04-22T05:48:24.705Z,186.25
2023-04-22T05:49:24.759Z,191.55
2023-04-22T05:50:24.778Z,192.30
2023-04-22T05:51:24.799Z,187.46
2023-04-22T05:52:24.793Z,188.98
2023-04-22T05:53:24.804Z,194.91
2023-04-22T05:54:24.836Z,198.60
2023-04-22T05:55:24.950Z,199.62
2023-04-22T05:56:24.948Z,196.39
2023-04-22T05:57:24.956Z,196.91
2023-04-22T05:58:24.987Z,194.21
2023-04-22T05:59:24.988Z,193.93
2023-04-22T06:00:25.008Z,194.50
2023-04-22T06:01:25.096Z,193.43
2023-04-22T06:02:25.332Z,195.09
2023-04-22T06:03:25.360Z,195.87
2023-04-22T06:04:25.463Z,192.70
2023-04-22T06:05:25.286Z,196.39
2023-04-22T06:06:25.248Z,200.53
2023-04-22T06:07:25.243Z,196.97
2023-04-22T06:08:25.213Z,197.57
2023-04-22T06:09:25.237Z,199.86
2023-04-22T06:10:25.324Z,207.68
2023-04-22T06:11:25.295Z,219.00
2023-04-22T06:12:25.287Z,228.81
2023-04-22T06:13:25.321Z,229.53
2023-04-22T06:14:25.343Z,228.93
2023-04-22T06:15:25.379Z,230.52
2023-04-22T06:16:25.414Z,234.11
2023-04-22T06:17:25.436Z,237.12
2023-04-22T06:18:26.521Z,231.36
2023-04-22T06:19:25.661Z,218.93
2023-04-22T06:20:25.565Z,219.03
2023-04-22T06:21:25.605Z,217.76
2023-04-22T06:22:25.712Z,214.94
2023-04-22T06:23:25.720Z,216.14
2023-04-22T06:24:27.312Z,216.04
2023-04-22T06:25:25.760Z,216.51
2023-04-22T06:26:25.804Z,216.32
2023-04-22T06:27:25.879Z,214.78
2023-04-22T06:28:25.928Z,221.65
2023-04-22T06:29:25.946Z,223.72
2023-04-22T06:30:26.001Z,223.30
2023-04-22T06:31:26.009Z,221.99
2023-04-22T06:32:26.042Z,217.63
2023-04-22T06:33:26.090Z,215.88
2023-04-22T06:34:26.105Z,215.00
2023-04-22T06:35:26.158Z,210.30
2023-04-22T06:36:27.951Z,203.09
2023-04-22T06:37:26.110Z,199.08
2023-04-22T06:38:26.268Z,201.64
2023-04-22T06:39:26.139Z,204.79
2023-04-22T06:40:26.103Z,195.48
2023-04-22T06:41:26.135Z,188.75
2023-04-22T06:42:26.118Z,182.88
2023-04-22T06:43:26.080Z,182.39
2023-04-22T06:44:26.080Z,182.32
2023-04-22T06:45:26.106Z,184.03
2023-04-22T06:46:26.115Z,182.23
2023-04-22T06:47:26.106Z,186.52
2023-04-22T06:48:26.054Z,185.54
2023-04-22T06:49:26.097Z,185.91
2023-04-22T06:50:26.077Z,184.79
2023-04-22T06:51:26.113Z,186.56
2023-04-22T06:52:26.028Z,185.59
2023-04-22T06:53:26.046Z,186.13
2023-04-22T06:54:26.045Z,190.88
2023-04-22T06:55:26.021Z,190.81
2023-04-22T06:56:26.000Z,177.25
2023-04-22T06:57:26.029Z,179.97
2023-04-22T06:58:26.079Z,159.25
2023-04-22T06:59:26.007Z,161.05
2023-04-22T07:00:25.963Z,159.58
2023-04-22T07:01:26.026Z,154.22
2023-04-22T07:02:26.077Z,158.14
2023-04-22T07:03:26.192Z,155.64
2023-04-22T07:04:26.822Z,151.04
2023-04-22T07:05:26.087Z,147.04
2023-04-22T07:06:25.977Z,142.26
2023-04-22T07:07:26.048Z,144.30
2023-04-22T07:08:26.014Z,142.82
2023-04-22T07:09:25.964Z,139.58
2023-04-22T07:10:26.136Z,130.47
2023-04-22T07:11:26.023Z,140.30
2023-04-22T07:12:26.172Z,133.30
2023-04-22T07:13:25.878Z,125.37
2023-04-22T07:14:25.939Z,129.67
2023-04-22T07:15:25.922Z,118.38
2023-04-22T07:16:25.960Z,121.81
2023-04-22T07:17:25.969Z,126.56
2023-04-22T07:18:25.876Z,126.67
2023-04-22T07:19:25.930Z,120.01
2023-04-22T07:20:25.976Z,106.36
2023-04-22T07:21:25.948Z,106.65
2023-04-22T07:22:25.953Z,106.72
2023-04-22T07:23:25.956Z,106.38
2023-04-22T07:24:25.996Z,109.02
2023-04-22T07:25:26.048Z,108.14
2023-04-22T07:26:26.089Z,118.02
2023-04-22T07:27:26.104Z,122.23
2023-04-22T07:28:26.224Z,117.49
2023-04-22T07:29:26.148Z,121.73
2023-04-22T07:30:26.134Z,128.84
2023-04-22T07:31:26.272Z,138.37
2023-04-22T07:32:26.305Z,131.94
2023-04-22T07:33:26.292Z,132.64
2023-04-22T07:34:26.349Z,135.37
2023-04-22T07:35:26.517Z,136.28
2023-04-22T07:36:26.599Z,138.10
2023-04-22T07:37:26.565Z,138.31
2023-04-22T07:38:26.744Z,130.89
2023-04-22T07:39:26.688Z,141.66
2023-04-22T07:40:26.663Z,149.68
2023-04-22T07:41:26.613Z,145.14
2023-04-22T07:42:26.610Z,141.08
2023-04-22T07:43:26.708Z,149.04
2023-04-22T07:44:26.854Z,156.09
2023-04-22T07:45:26.704Z,148.17
2023-04-22T07:46:26.716Z,151.12
2023-04-22T07:47:26.805Z,144.97
2023-04-22T07:48:27.419Z,152.15
2023-04-22T07:49:26.897Z,144.61
2023-04-22T07:50:26.835Z,135.22
2023-04-22T07:51:26.918Z,128.59
2023-04-22T07:52:26.892Z,120.69
2023-04-22T07:53:26.982Z,131.23
2023-04-22T07:54:26.977Z,125.67
2023-04-22T07:55:27.040Z,123.30
2023-04-22T07:56:27.182Z,110.92
2023-04-22T07:57:27.263Z,115.33
2023-04-22T07:58:27.119Z,110.55
2023-04-22T07:59:27.302Z,99.94
2023-04-22T08:00:27.238Z,86.21
2023-04-22T08:01:27.341Z,87.25
2023-04-22T08:02:27.423Z,82.30
2023-04-22T08:03:27.498Z,85.94
2023-04-22T08:04:27.606Z,90.13
2023-04-22T08:05:27.606Z,79.43
2023-04-22T08:06:27.482Z,69.84
2023-04-22T08:07:32.947Z,57.69
2023-04-22T08:08:28.434Z,46.02
2023-04-22T08:09:27.363Z,39.78
2023-04-22T08:10:27.450Z,44.92
2023-04-22T08:11:27.573Z,52.80
2023-04-22T08:12:27.901Z,58.95
2023-04-22T08:13:27.304Z,42.17
2023-04-22T08:14:27.422Z,30.54
2023-04-22T08:15:27.384Z,30.35
2023-04-22T08:16:27.534Z,15.80
2023-04-22T08:17:27.447Z,10.19
2023-04-22T08:18:27.340Z,16.09
2023-04-22T08:19:28.152Z,16.49
2023-04-22T08:20:27.528Z,22.41
2023-04-22T08:21:27.417Z,29.48
2023-04-22T08:22:27.481Z,28.24
2023-04-22T08:23:27.415Z,35.18
2023-04-22T08:24:27.862Z,33.80
2023-04-22T08:25:27.290Z,24.30
2023-04-22T08:26:27.253Z,34.91
2023-04-22T08:27:27.282Z,36.32
2023-04-22T08:28:27.408Z,48.38
2023-04-22T08:29:27.225Z,40.21
2023-04-22T08:30:27.247Z,31.09
2023-04-22T08:31:27.221Z,25.60
2023-04-22T08:32:27.278Z,25.01
2023-04-22T08:33:27.461Z,25.61
2023-04-22T08:34:27.275Z,28.15
2023-04-22T08:35:28.054Z,27.25
2023-04-22T08:36:27.221Z,24.68
2023-04-22T08:37:27.145Z,17.12
2023-04-22T08:38:27.352Z,2.66
2023-04-22T08:39:27.174Z,6.61
2023-04-22T08:40:27.341Z,8.06
2023-04-22T08:41:27.112Z,3.63
2023-04-22T08:42:27.201Z,17.19
2023-04-22T08:43:27.105Z,10.32
2023-04-22T08:44:27.175Z,5.08
2023-04-22T08:45:27.096Z,2.49
2023-04-22T08:46:27.142Z,14.13
2023-04-22T08:47:27.188Z,14.92
2023-04-22T08:48:27.092Z,23.39
2023-04-22T08:49:27.093Z,18.38
2023-04-22T08:50:27.177Z,33.71
2023-04-22T08:51:27.190Z,21.45
2023-04-22T08:52:27.156Z,18.33
2023-04-22T08:53:27.058Z,25.02
2023-04-22T08:54:27.042Z,25.65
2023-04-22T08:55:27.046Z,17.86
2023-04-22T08:56:27.046Z,16.13
2023-04-22T08:57:27.060Z,23.03
2023-04-22T08:58:27.100Z,27.50
2023-04-22T08:59:27.097Z,31.78
2023-04-22T09:00:27.210Z,25.98
2023-04-22T09:01:27.320Z,29.55
2023-04-22T09:02:27.980Z,26.59
2023-04-22T09:03:27.439Z,23.90
2023-04-22T09:04:27.412Z,24.82
2023-04-22T09:05:28.024Z,34.43
2023-04-22T09:06:27.403Z,32.88
2023-04-22T09:07:27.590Z,29.37
2023-04-22T09:08:27.515Z,23.64
2023-04-22T09:09:27.529Z,21.43
2023-04-22T09:10:27.528Z,26.16
2023-04-22T09:11:27.615Z,30.71
2023-04-22T09:12:27.593Z,34.39
2023-04-22T09:13:27.751Z,34.12
2023-04-22T09:14:27.712Z,24.41
2023-04-22T09:15:27.784Z,27.28
2023-04-22T09:16:28.445Z,30.07
2023-04-22T09:17:27.806Z,36.78
2023-04-22T09:18:27.884Z,37.08
2023-04-22T09:19:27.929Z,33.34
2023-04-22T09:20:27.891Z,21.68
2023-04-22T09:21:27.897Z,22.08
2023-04-22T09:22:27.889Z,20.77
2023-04-22T09:23:27.969Z,20.57
2023-04-22T09:24:28.916Z,16.30
2023-04-22T09:25:28.168Z,20.63
2023-04-22T09:26:28.058Z,22.32
2023-04-22T09:27:28.132Z,23.58
2023-04-22T09:28:28.167Z,34.04
2023-04-22T09:29:28.269Z,26.06
2023-04-22T09:30:28.328Z,24.38
2023-04-22T09:31:28.327Z,24.58
2023-04-22T09:32:28.485Z,27.84
2023-04-22T09:33:28.500Z,33.34
2023-04-22T09:34:28.491Z,32.21
2023-04-22T09:35:28.419Z,35.06
2023-04-22T09:36:28.454Z,34.34
2023-04-22T09:37:36.036Z,25.98
2023-04-22T09:38:29.588Z,24.29
2023-04-22T09:39:28.610Z,20.15
2023-04-22T09:40:28.652Z,16.06
2023-04-22T09:41:28.497Z,19.16
2023-04-22T09:42:28.558Z,24.90
2023-04-22T09:43:28.477Z,28.81
2023-04-22T09:44:28.475Z,28.71
2023-04-22T09:45:28.515Z,29.96
2023-04-22T09:46:28.719Z,34.29
2023-04-22T09:47:28.457Z,34.50
2023-04-22T09:48:28.442Z,35.37
2023-04-22T09:49:29.489Z,36.53
2023-04-22T09:50:28.429Z,42.64
2023-04-22T09:51:28.567Z,46.57
2023-04-22T09:52:29.365Z,41.44
2023-04-22T09:53:28.485Z,38.13
2023-04-22T09:54:28.517Z,37.91
2023-04-22T09:55:28.368Z,45.97
2023-04-22T09:56:28.453Z,50.42
2023-04-22T09:57:28.373Z,43.71
2023-04-22T09:58:28.427Z,54.09
2023-04-22T09:59:28.378Z,54.01
2023-04-22T10:00:28.483Z,57.26
2023-04-22T10:01:28.604Z,45.97
2023-04-22T10:02:28.714Z,45.04
2023-04-22T10:03:28.690Z,48.70
2023-04-22T10:04:28.839Z,49.90
2023-04-22T10:05:28.699Z,43.48
2023-04-22T10:06:28.807Z,44.11
2023-04-22T10:07:28.879Z,50.28
2023-04-22T10:08:28.810Z,47.09
2023-04-22T10:09:28.878Z,45.08
2023-04-22T10:10:28.955Z,40.44
2023-04-22T10:11:28.932Z,36.69
2023-04-22T10:12:35.341Z,37.83
2023-04-22T10:13:29.896Z,34.19
2023-04-22T10:14:28.940Z,29.53
2023-04-22T10:15:29.023Z,30.34
2023-04-22T10:16:29.015Z,30.19
2023-04-22T10:17:28.974Z,40.42
2023-04-22T10:18:28.903Z,34.51
2023-04-22T10:19:28.934Z,36.69
2023-04-22T10:20:28.848Z,37.39
2023-04-22T10:21:28.914Z,37.64
2023-04-22T10:22:29.017Z,35.25
2023-04-22T10:23:28.846Z,36.57
2023-04-22T10:24:28.908Z,41.46
2023-04-22T10:25:28.839Z,34.70
2023-04-22T10:26:28.838Z,32.46
2023-04-22T10:27:28.809Z,35.77
2023-04-22T10:28:28.822Z,37.97
2023-04-22T10:29:28.845Z,39.01
2023-04-22T10:30:28.780Z,49.57
2023-04-22T10:31:29.031Z,40.76
2023-04-22T10:32:28.845Z,34.02
2023-04-22T10:33:29.012Z,41.38
2023-04-22T10:34:28.812Z,45.42
2023-04-22T10:35:28.967Z,43.31
2023-04-22T10:36:28.931Z,39.38
2023-04-22T10:37:29.008Z,39.14
2023-04-22T10:38:28.973Z,37.97
2023-04-22T10:39:29.060Z,35.59
2023-04-22T10:40:29.009Z,45.53
2023-04-22T10:41:29.072Z,47.80
2023-04-22T10:42:29.098Z,42.31
2023-04-22T10:43:29.203Z,34.97
2023-04-22T10:44:30.004Z,29.11
2023-04-22T10:45:29.241Z,25.00
2023-04-22T10:46:29.256Z,28.49
2023-04-22T10:47:29.373Z,35.04
2023-04-22T10:48:29.262Z,30.04
2023-04-22T10:49:29.388Z,24.24
2023-04-22T10:50:29.394Z,25.62
2023-04-22T10:51:29.520Z,25.88
2023-04-22T10:52:29.481Z,27.92
2023-04-22T10:53:29.598Z,31.77
2023-04-22T10:54:31.852Z,32.77
2023-04-22T10:55:29.442Z,39.59
2023-04-22T10:56:29.516Z,44.27
2023-04-22T10:57:29.570Z,42.52
2023-04-22T10:58:29.504Z,50.22
2023-04-22T10:59:29.473Z,53.29
2023-04-22T11:00:33.163Z,57.17
2023-04-22T11:01:30.459Z,53.66
2023-04-22T11:02:29.530Z,51.75
2023-04-22T11:03:30.294Z,53.00
2023-04-22T11:04:29.411Z,51.38
2023-04-22T11:05:29.442Z,48.54
2023-04-22T11:06:29.431Z,73.71
2023-04-22T11:07:29.448Z,65.87
2023-04-22T11:08:29.439Z,55.05
2023-04-22T11:09:29.394Z,51.89
2023-04-22T11:10:29.420Z,52.84
2023-04-22T11:11:29.444Z,59.16
2023-04-22T11:12:29.380Z,66.42
2023-04-22T11:13:29.381Z,69.95
2023-04-22T11:14:29.454Z,58.13
2023-04-22T11:15:29.384Z,53.70
2023-04-22T11:16:29.385Z,52.17
2023-04-22T11:17:29.368Z,46.82
2023-04-22T11:18:29.407Z,49.27
2023-04-22T11:19:29.374Z,56.44
2023-04-22T11:20:29.409Z,48.44
2023-04-22T11:21:29.449Z,42.02
2023-04-22T11:22:29.460Z,35.44
2023-04-22T11:23:29.475Z,38.90
2023-04-22T11:24:29.579Z,34.31
2023-04-22T11:25:29.584Z,38.32
2023-04-22T11:26:29.637Z,47.62
2023-04-22T11:27:29.630Z,39.41
2023-04-22T11:28:29.683Z,33.71
2023-04-22T11:29:29.764Z,39.19
2023-04-22T11:30:29.792Z,35.32
2023-04-22T11:31:29.874Z,36.85
2023-04-22T11:32:29.979Z,39.21
2023-04-22T11:33:29.908Z,52.89
2023-04-22T11:34:29.910Z,43.79
2023-04-22T11:35:29.962Z,34.00
2023-04-22T11:36:29.951Z,33.19
2023-04-22T11:37:30.002Z,25.45
2023-04-22T11:38:30.065Z,33.69
2023-04-22T11:39:30.146Z,41.10
2023-04-22T11:40:31.764Z,61.29
2023-04-22T11:41:30.303Z,54.11
2023-04-22T11:42:30.342Z,48.65
2023-04-22T11:43:30.335Z,47.70
2023-04-22T11:44:30.495Z,42.68
2023-04-22T11:45:30.514Z,45.85
2023-04-22T11:46:30.657Z,37.98
2023-04-22T11:47:30.620Z,41.04
2023-04-22T11:48:30.565Z,53.17
2023-04-22T11:49:30.625Z,55.41
2023-04-22T11:50:30.701Z,60.70
2023-04-22T11:51:30.641Z,55.72
2023-04-22T11:52:30.647Z,53.90
2023-04-22T11:53:30.708Z,50.03
2023-04-22T11:54:30.755Z,51.36
2023-04-22T11:55:30.844Z,51.98
2023-04-22T11:56:30.884Z,44.84
2023-04-22T11:57:31.770Z,44.15
2023-04-22T11:58:30.923Z,48.80
2023-04-22T11:59:30.943Z,40.46
2023-04-22T12:00:31.005Z,32.01
2023-04-22T12:01:31.075Z,41.15
2023-04-22T12:02:31.222Z,49.81
2023-04-22T12:03:31.564Z,52.67
2023-04-22T12:04:31.160Z,46.93
2023-04-22T12:05:31.320Z,53.97
2023-04-22T12:06:31.217Z,42.79
2023-04-22T12:07:31.375Z,33.55
2023-04-22T12:08:31.331Z,52.57
2023-04-22T12:09:31.381Z,52.38
2023-04-22T12:10:31.452Z,39.76
2023-04-22T12:11:31.462Z,35.27
2023-04-22T12:12:31.510Z,32.33
2023-04-22T12:13:31.502Z,39.07
2023-04-22T12:14:31.528Z,40.82
2023-04-22T12:15:31.598Z,55.55
2023-04-22T12:16:31.631Z,58.59
2023-04-22T12:17:31.673Z,43.97
2023-04-22T12:18:31.703Z,42.60
2023-04-22T12:19:31.712Z,40.02
2023-04-22T12:20:31.778Z,43.38
2023-04-22T12:21:31.844Z,33.08
2023-04-22T12:22:31.878Z,51.53
2023-04-22T12:23:31.887Z,36.97
2023-04-22T12:24:31.912Z,27.88
2023-04-22T12:25:32.032Z,16.55
2023-04-22T12:26:32.054Z,32.65
2023-04-22T12:27:32.030Z,33.84
2023-04-22T12:28:32.039Z,40.90
2023-04-22T12:29:32.098Z,43.40
2023-04-22T12:30:32.074Z,31.85
2023-04-22T12:31:32.237Z,33.76
2023-04-22T12:32:32.140Z,33.64
2023-04-22T12:33:32.151Z,36.22
2023-04-22T12:34:32.138Z,45.12
2023-04-22T12:35:32.174Z,56.42
2023-04-22T12:36:32.253Z,58.30
2023-04-22T12:37:32.277Z,39.31